Time;durP1;ratioP1;P1;durP2;ratioP2;P2;SDS_P1;SDS_P2;PMS_P1;PMS_P2;Temp;Humidity;BMP_temperature;BMP_pressure;BME280_temperature;BME280_humidity;BME280_pressure;Samples;Min_cycle;Max_cycle;Signal;HPM_P1;HPM_P2
2021/04/27 00:01:13;;;;;;;2.13;1.10;;;;;;;;;;5032491;28;20010;-58
2021/04/27 00:03:38;;;;;;;1.90;0.80;;;;;;;;;;5032507;28;20025;-58
2021/04/27 00:06:04;;;;;;;1.63;0.63;;;;;;;;;;5034018;28;20561;-57
2021/04/27 00:08:29;;;;;;;1.70;0.80;;;;;;;;;;5030694;28;20366;-58
2021/04/27 00:10:54;;;;;;;2.20;0.67;;;;;;;;;;5030827;28;20063;-58
2021/04/27 00:13:20;;;;;;;2.57;0.70;;;;;;;;;;5033146;28;20025;-58
2021/04/27 00:15:45;;;;;;;0.87;0.33;;;;;;;;;;5041622;28;20044;-58
2021/04/27 00:18:10;;;;;;;1.97;0.50;;;;;;;;;;5032837;28;20164;-58
2021/04/27 00:20:36;;;;;;;2.00;0.70;;;;;;;;;;5030315;28;20017;-58
2021/04/27 00:23:02;;;;;;;3.53;0.50;;;;;;;;;;5041659;28;20024;-58
2021/04/27 00:25:27;;;;;;;3.23;0.60;;;;;;;;;;5033981;28;20030;-59
2021/04/27 00:27:54;;;;;;;1.50;0.60;;;;;;;;;;5032800;28;20135;-58
2021/04/27 00:30:20;;;;;;;2.57;0.60;;;;;;;;;;5030598;28;20126;-58
2021/04/27 00:32:46;;;;;;;1.17;0.57;;;;;;;;;;5018303;28;20061;-58
2021/04/27 00:35:12;;;;;;;1.80;0.60;;;;;;;;;;5019530;28;20029;-58
2021/04/27 00:37:37;;;;;;;1.57;0.67;;;;;;;;;;5031498;28;20027;-58
2021/04/27 00:40:03;;;;;;;2.20;0.60;;;;;;;;;;5029550;28;20465;-58
2021/04/27 00:42:33;;;;;;;2.03;0.70;;;;;;;;;;5040285;28;20037;-58
2021/04/27 00:44:58;;;;;;;3.73;0.60;;;;;;;;;;5032416;28;20032;-58
2021/04/27 00:47:23;;;;;;;2.77;1.07;;;;;;;;;;5030064;28;20026;-57
2021/04/27 00:49:49;;;;;;;1.60;0.80;;;;;;;;;;5029927;28;20476;-58
2021/04/27 00:52:14;;;;;;;1.17;0.53;;;;;;;;;;5032977;28;20100;-58
2021/04/27 00:54:40;;;;;;;1.30;0.50;;;;;;;;;;5032236;28;20062;-58
2021/04/27 00:57:05;;;;;;;1.93;0.70;;;;;;;;;;5032157;28;20124;-58
2021/04/27 00:59:30;;;;;;;4.63;0.60;;;;;;;;;;5029128;28;20495;-59
2021/04/27 01:01:55;;;;;;;1.83;0.50;;;;;;;;;;5031666;28;20031;-58
2021/04/27 01:04:20;;;;;;;3.70;0.50;;;;;;;;;;5033001;28;20112;-59
2021/04/27 01:06:48;;;;;;;0.70;0.40;;;;;;;;;;5032571;28;20049;-58
2021/04/27 01:09:15;;;;;;;2.77;0.47;;;;;;;;;;5029596;28;20033;-59
2021/04/27 01:11:55;;;;;;;3.07;0.50;;;;;;;;;;5035910;28;20084;-59
2021/04/27 01:14:32;;;;;;;1.10;0.50;;;;;;;;;;5031838;28;20048;-58
2021/04/27 01:17:00;;;;;;;2.57;0.80;;;;;;;;;;5032253;28;20548;-58
2021/04/27 01:19:35;;;;;;;4.90;1.00;;;;;;;;;;5038001;28;20022;-58
2021/04/27 01:22:00;;;;;;;4.60;1.05;;;;;;;;;;5032558;28;20021;-58
2021/04/27 01:24:29;;;;;;;3.20;0.97;;;;;;;;;;5025682;28;20029;-58
2021/04/27 01:26:55;;;;;;;4.13;0.80;;;;;;;;;;5018891;28;20109;-58
2021/04/27 01:29:22;;;;;;;1.87;0.70;;;;;;;;;;5029353;28;20127;-58
2021/04/27 01:31:48;;;;;;;2.53;0.73;;;;;;;;;;5031679;28;20052;-58
2021/04/27 01:34:16;;;;;;;3.13;0.70;;;;;;;;;;5025423;28;20488;-58
2021/04/27 01:36:41;;;;;;;5.07;0.80;;;;;;;;;;5031114;28;20030;-57
2021/04/27 01:39:07;;;;;;;3.23;0.60;;;;;;;;;;5028981;28;20098;-57
2021/04/27 01:41:36;;;;;;;3.43;0.80;;;;;;;;;;5031046;28;20021;-59
2021/04/27 01:44:03;;;;;;;3.57;0.90;;;;;;;;;;5031411;28;20096;-58
2021/04/27 01:46:28;;;;;;;2.07;0.80;;;;;;;;;;5031178;28;20032;-59
2021/04/27 01:48:54;;;;;;;1.73;0.70;;;;;;;;;;5029548;28;20022;-59
2021/04/27 01:51:20;;;;;;;2.07;0.60;;;;;;;;;;5028142;28;20029;-58
2021/04/27 01:53:45;;;;;;;2.73;0.83;;;;;;;;;;5027319;28;20126;-57
2021/04/27 01:56:11;;;;;;;3.03;0.77;;;;;;;;;;5026717;28;20017;-58
2021/04/27 01:58:37;;;;;;;2.57;0.77;;;;;;;;;;5029759;28;20013;-58
2021/04/27 02:01:03;;;;;;;4.27;1.47;;;;;;;;;;5029770;28;20479;-58
2021/04/27 02:03:28;;;;;;;5.13;0.63;;;;;;;;;;5028787;28;20013;-58
2021/04/27 02:05:53;;;;;;;1.97;0.80;;;;;;;;;;5030052;28;20045;-58
2021/04/27 02:08:19;;;;;;;3.10;0.73;;;;;;;;;;5024581;28;20020;-58
2021/04/27 02:10:44;;;;;;;1.70;1.00;;;;;;;;;;5027221;28;20049;-58
2021/04/27 02:13:12;;;;;;;2.83;0.77;;;;;;;;;;5021044;28;20025;-58
2021/04/27 02:15:37;;;;;;;3.43;1.07;;;;;;;;;;5027605;28;20492;-58
2021/04/27 02:18:06;;;;;;;5.33;1.07;;;;;;;;;;5031661;28;20104;-57
2021/04/27 02:20:31;;;;;;;5.27;1.67;;;;;;;;;;5026368;28;20056;-58
2021/04/27 02:22:59;;;;;;;1.93;0.97;;;;;;;;;;5024711;28;20091;-58
2021/04/27 02:25:25;;;;;;;2.90;1.13;;;;;;;;;;5030057;28;20483;-58
2021/04/27 02:27:50;;;;;;;4.33;0.87;;;;;;;;;;5030846;28;20264;-57
2021/04/27 02:30:17;;;;;;;2.83;1.93;;;;;;;;;;5025145;28;20025;-58
2021/04/27 02:32:43;;;;;;;3.27;1.10;;;;;;;;;;5011786;28;20591;-58
2021/04/27 02:35:09;;;;;;;3.30;0.80;;;;;;;;;;5028645;28;20108;-57
2021/04/27 02:37:35;;;;;;;2.33;0.80;;;;;;;;;;5031020;28;20093;-57
2021/04/27 02:40:00;;;;;;;3.00;0.97;;;;;;;;;;5028011;28;20037;-58
2021/04/27 02:42:26;;;;;;;1.43;1.07;;;;;;;;;;5030854;28;20026;-58
2021/04/27 02:44:51;;;;;;;3.30;1.10;;;;;;;;;;5030174;28;20017;-58
2021/04/27 02:47:16;;;;;;;2.93;1.73;;;;;;;;;;5031513;28;20029;-59
2021/04/27 02:49:42;;;;;;;1.93;1.20;;;;;;;;;;5022482;28;20022;-57
2021/04/27 02:52:07;;;;;;;4.33;1.33;;;;;;;;;;5031016;28;20373;-57
2021/04/27 02:54:32;;;;;;;3.90;1.20;;;;;;;;;;5029490;28;20447;-58
2021/04/27 02:56:57;;;;;;;2.37;1.30;;;;;;;;;;5035334;28;20021;-58
2021/04/27 02:59:23;;;;;;;2.70;1.20;;;;;;;;;;5027923;28;20057;-59
2021/04/27 03:01:48;;;;;;;3.00;1.30;;;;;;;;;;5030669;28;20457;-58
2021/04/27 03:04:13;;;;;;;3.00;1.20;;;;;;;;;;5030524;28;20017;-58
2021/04/27 03:06:38;;;;;;;1.80;0.77;;;;;;;;;;5030930;28;20061;-58
2021/04/27 03:09:04;;;;;;;5.17;1.07;;;;;;;;;;5025475;28;20056;-58
2021/04/27 03:11:29;;;;;;;3.07;0.70;;;;;;;;;;5029828;28;20369;-58
2021/04/27 03:13:55;;;;;;;1.97;1.00;;;;;;;;;;5031176;28;20018;-57
2021/04/27 03:16:20;;;;;;;3.73;0.90;;;;;;;;;;5026796;28;20041;-59
2021/04/27 03:18:46;;;;;;;3.20;0.90;;;;;;;;;;5018995;28;20049;-57
2021/04/27 03:21:11;;;;;;;5.50;0.90;;;;;;;;;;5033987;28;20427;-58
2021/04/27 03:23:36;;;;;;;2.00;0.93;;;;;;;;;;5038466;28;20026;-58
2021/04/27 03:26:01;;;;;;;2.83;0.87;;;;;;;;;;5014947;28;20018;-57
2021/04/27 03:28:27;;;;;;;3.77;0.90;;;;;;;;;;5026731;28;20029;-58
2021/04/27 03:30:52;;;;;;;4.73;0.90;;;;;;;;;;5030709;28;20439;-58
2021/04/27 03:33:17;;;;;;;2.73;0.90;;;;;;;;;;5034021;28;20032;-57
2021/04/27 03:35:43;;;;;;;4.17;1.30;;;;;;;;;;5032060;28;20017;-57
2021/04/27 03:38:09;;;;;;;6.07;1.83;;;;;;;;;;5034424;28;20571;-59
2021/04/27 03:40:34;;;;;;;2.17;1.13;;;;;;;;;;5030533;28;20017;-58
2021/04/27 03:42:59;;;;;;;5.77;1.17;;;;;;;;;;5033501;28;20192;-58
2021/04/27 03:45:35;;;;;;;3.10;0.90;;;;;;;;;;5043029;28;20021;-58
2021/04/27 03:48:00;;;;;;;3.25;1.10;;;;;;;;;;5047392;28;20033;-58
2021/04/27 03:50:25;;;;;;;3.03;1.10;;;;;;;;;;5031880;28;20029;-59
2021/04/27 03:52:51;;;;;;;3.97;0.90;;;;;;;;;;5017215;28;20034;-59
2021/04/27 03:55:16;;;;;;;3.10;1.07;;;;;;;;;;5014742;28;20114;-57
2021/04/27 03:57:41;;;;;;;3.47;1.07;;;;;;;;;;5020582;28;20372;-59
2021/04/27 04:00:07;;;;;;;2.63;0.90;;;;;;;;;;5028961;28;20460;-59
2021/04/27 04:02:32;;;;;;;1.67;0.73;;;;;;;;;;5034049;28;20025;-59
2021/04/27 04:04:57;;;;;;;4.13;1.00;;;;;;;;;;5032751;28;20017;-58
2021/04/27 04:07:23;;;;;;;2.20;1.10;;;;;;;;;;5033867;28;20175;-58
2021/04/27 04:09:48;;;;;;;4.53;0.97;;;;;;;;;;5029079;28;20481;-59
2021/04/27 04:12:13;;;;;;;4.77;1.50;;;;;;;;;;5033802;28;20020;-59
2021/04/27 04:14:38;;;;;;;6.03;1.50;;;;;;;;;;5032950;28;20033;-58
2021/04/27 04:17:04;;;;;;;8.73;1.83;;;;;;;;;;5031783;28;20029;-58
2021/04/27 04:19:29;;;;;;;4.03;1.10;;;;;;;;;;5029458;28;20017;-58
2021/04/27 04:21:55;;;;;;;4.33;1.23;;;;;;;;;;5021724;28;20461;-59
2021/04/27 04:24:20;;;;;;;2.70;0.93;;;;;;;;;;5032041;28;20451;-59
2021/04/27 04:26:45;;;;;;;4.50;1.23;;;;;;;;;;5032561;28;20040;-59
2021/04/27 04:29:10;;;;;;;3.67;1.40;;;;;;;;;;5029884;28;20185;-59
2021/04/27 04:31:36;;;;;;;2.77;1.53;;;;;;;;;;5033420;28;20515;-58
2021/04/27 04:34:01;;;;;;;3.97;0.97;;;;;;;;;;5029488;28;20022;-56
2021/04/27 04:36:26;;;;;;;4.20;0.97;;;;;;;;;;5033519;28;20021;-59
2021/04/27 04:38:51;;;;;;;2.33;1.00;;;;;;;;;;5021841;28;20452;-58
2021/04/27 04:41:17;;;;;;;5.13;1.27;;;;;;;;;;5032287;28;20100;-58
2021/04/27 04:43:45;;;;;;;4.30;1.40;;;;;;;;;;5031802;28;20017;-58
2021/04/27 04:46:10;;;;;;;2.43;1.07;;;;;;;;;;5032251;28;20026;-57
2021/04/27 04:48:35;;;;;;;1.40;0.70;;;;;;;;;;5032253;28;20534;-58
2021/04/27 04:51:01;;;;;;;2.57;0.93;;;;;;;;;;5029235;28;20475;-58
2021/04/27 04:53:27;;;;;;;3.00;1.10;;;;;;;;;;5031637;28;20034;-59
2021/04/27 04:55:52;;;;;;;4.40;1.07;;;;;;;;;;5032778;28;20025;-59
2021/04/27 04:58:17;;;;;;;3.10;0.70;;;;;;;;;;5032348;28;20025;-58
2021/04/27 05:00:42;;;;;;;3.57;1.23;;;;;;;;;;5032995;28;20452;-59
2021/04/27 05:03:08;;;;;;;4.23;1.67;;;;;;;;;;5029506;28;21848;-58
2021/04/27 05:05:33;;;;;;;3.80;1.10;;;;;;;;;;5031139;28;20037;-58
2021/04/27 05:08:23;;;;;;;2.77;1.83;;;;;;;;;;5025228;28;20117;-58
2021/04/27 05:10:48;;;;;;;3.47;1.20;;;;;;;;;;5021931;28;20502;-58
2021/04/27 05:13:14;;;;;;;7.03;1.40;;;;;;;;;;5031977;28;20064;-56
2021/04/27 05:15:39;;;;;;;7.50;1.53;;;;;;;;;;5032019;28;20028;-57
2021/04/27 05:18:05;;;;;;;4.57;1.80;;;;;;;;;;5031762;28;20043;-58
2021/04/27 05:20:31;;;;;;;7.33;1.70;;;;;;;;;;5028263;28;20040;-58
2021/04/27 05:22:56;;;;;;;5.27;1.57;;;;;;;;;;5032735;28;20014;-59
2021/04/27 05:25:21;;;;;;;4.53;0.80;;;;;;;;;;5031072;28;20025;-58
2021/04/27 05:27:46;;;;;;;2.60;0.80;;;;;;;;;;5032084;28;20021;-59
2021/04/27 05:30:12;;;;;;;3.03;0.77;;;;;;;;;;5017692;28;20017;-58
2021/04/27 05:32:38;;;;;;;3.17;1.10;;;;;;;;;;5032029;28;20026;-56
2021/04/27 05:35:05;;;;;;;2.37;0.50;;;;;;;;;;5030200;28;20076;-57
2021/04/27 05:37:30;;;;;;;4.10;0.83;;;;;;;;;;5032103;28;20025;-59
2021/04/27 05:39:55;;;;;;;4.50;1.20;;;;;;;;;;5022309;28;20033;-59
2021/04/27 05:42:20;;;;;;;4.07;0.90;;;;;;;;;;5026434;28;20029;-56
2021/04/27 05:44:46;;;;;;;4.13;0.83;;;;;;;;;;5028164;28;20071;-58
2021/04/27 05:47:11;;;;;;;6.10;1.20;;;;;;;;;;5031046;28;20025;-58
2021/04/27 05:49:37;;;;;;;1.50;0.67;;;;;;;;;;5028101;28;20308;-58
2021/04/27 05:52:02;;;;;;;92.03;9.57;;;;;;;;;;5031855;28;20116;-59
2021/04/27 05:54:28;;;;;;;18.97;2.53;;;;;;;;;;5031318;28;20051;-58
2021/04/27 05:56:53;;;;;;;10.97;1.77;;;;;;;;;;5038062;28;20025;-59
2021/04/27 05:59:18;;;;;;;30.17;4.03;;;;;;;;;;5025307;28;20056;-58
2021/04/27 06:01:43;;;;;;;6.03;1.40;;;;;;;;;;5038989;28;20021;-59
2021/04/27 06:04:09;;;;;;;3.53;1.00;;;;;;;;;;5030628;28;20022;-58
2021/04/27 06:06:35;;;;;;;4.37;1.07;;;;;;;;;;5031167;28;20492;-58
2021/04/27 06:09:05;;;;;;;5.27;0.90;;;;;;;;;;5028153;28;20542;-58
2021/04/27 06:11:30;;;;;;;4.67;1.10;;;;;;;;;;5029883;28;20037;-58
2021/04/27 06:13:55;;;;;;;2.67;0.83;;;;;;;;;;5030917;28;20033;-58
2021/04/27 06:16:20;;;;;;;5.70;0.80;;;;;;;;;;5030786;28;20030;-58
2021/04/27 06:18:45;;;;;;;4.17;0.83;;;;;;;;;;5028216;28;20021;-59
2021/04/27 06:21:12;;;;;;;2.93;0.80;;;;;;;;;;5029660;28;20018;-59
2021/04/27 06:23:37;;;;;;;3.23;0.90;;;;;;;;;;5029868;28;20052;-58
2021/04/27 06:26:03;;;;;;;4.83;0.70;;;;;;;;;;5034313;28;20049;-57
2021/04/27 06:28:28;;;;;;;4.93;1.10;;;;;;;;;;5034047;28;20096;-58
2021/04/27 06:30:53;;;;;;;6.07;1.80;;;;;;;;;;5040132;28;20021;-59
2021/04/27 06:33:18;;;;;;;4.33;0.70;;;;;;;;;;5033764;28;20025;-57
2021/04/27 06:35:43;;;;;;;3.50;0.60;;;;;;;;;;5030839;28;20057;-59
2021/04/27 06:38:09;;;;;;;3.47;0.90;;;;;;;;;;5030882;28;20037;-59
2021/04/27 06:40:34;;;;;;;8.67;2.20;;;;;;;;;;5027113;28;20025;-59
2021/04/27 06:42:59;;;;;;;2.83;0.80;;;;;;;;;;5031061;28;20025;-58
2021/04/27 06:45:26;;;;;;;2.53;1.10;;;;;;;;;;5038856;28;20071;-58
2021/04/27 06:47:52;;;;;;;3.17;1.00;;;;;;;;;;5027182;28;20025;-58
2021/04/27 06:50:18;;;;;;;3.13;1.00;;;;;;;;;;5027028;28;20025;-59
2021/04/27 06:52:44;;;;;;;3.17;0.80;;;;;;;;;;5030284;28;20057;-58
2021/04/27 06:55:09;;;;;;;2.23;0.80;;;;;;;;;;5029639;28;20053;-60
2021/04/27 06:57:35;;;;;;;3.40;1.30;;;;;;;;;;5026862;28;20024;-59
2021/04/27 07:00:00;;;;;;;2.90;0.87;;;;;;;;;;5019461;28;20029;-58
2021/04/27 07:02:25;;;;;;;3.73;1.20;;;;;;;;;;5030207;28;20025;-59
2021/04/27 07:04:51;;;;;;;4.30;0.80;;;;;;;;;;5028763;28;20108;-58
2021/04/27 07:07:16;;;;;;;4.07;0.90;;;;;;;;;;5019693;28;20551;-49
2021/04/27 07:09:41;;;;;;;3.03;1.00;;;;;;;;;;5031505;28;20035;-56
2021/04/27 07:12:07;;;;;;;4.53;0.93;;;;;;;;;;5030285;28;20508;-59
2021/04/27 07:14:32;;;;;;;4.00;1.10;;;;;;;;;;5029759;28;20476;-55
2021/04/27 07:16:58;;;;;;;2.28;1.02;;;;;;;;;;5027811;28;20072;-59
2021/04/27 07:19:23;;;;;;;3.72;1.05;;;;;;;;;;5027769;28;20026;-58
2021/04/27 07:21:50;;;;;;;2.13;1.02;;;;;;;;;;5029903;28;20030;-59
2021/04/27 07:24:15;;;;;;;4.68;1.10;;;;;;;;;;5035637;28;20021;-57
2021/04/27 07:26:41;;;;;;;2.58;1.60;;;;;;;;;;5035410;28;20427;-58
2021/04/27 07:29:07;;;;;;;4.72;1.45;;;;;;;;;;5023277;28;20562;-56
2021/04/27 07:31:32;;;;;;;3.65;0.98;;;;;;;;;;5030114;28;20025;-57
2021/04/27 07:33:57;;;;;;;3.05;1.20;;;;;;;;;;5036857;28;20052;-58
2021/04/27 07:36:22;;;;;;;3.80;1.42;;;;;;;;;;5042469;28;20484;-55
2021/04/27 07:38:48;;;;;;;2.92;1.10;;;;;;;;;;5030556;28;20379;-58
2021/04/27 07:41:13;;;;;;;6.65;1.30;;;;;;;;;;5029300;28;20459;-57
2021/04/27 07:43:38;;;;;;;6.07;1.35;;;;;;;;;;5029314;28;20014;-56
2021/04/27 07:46:04;;;;;;;3.90;1.25;;;;;;;;;;5038096;28;20029;-59
2021/04/27 07:48:29;;;;;;;4.53;1.60;;;;;;;;;;5031718;28;20021;-59
2021/04/27 07:50:54;;;;;;;3.88;1.27;;;;;;;;;;5034201;28;20014;-57
2021/04/27 07:53:20;;;;;;;3.95;1.35;;;;;;;;;;5011424;28;20018;-57
2021/04/27 07:55:45;;;;;;;3.13;1.00;;;;;;;;;;5029479;28;20037;-56
2021/04/27 07:58:10;;;;;;;3.55;1.35;;;;;;;;;;5040250;28;20025;-56
2021/04/27 08:00:36;;;;;;;4.90;1.40;;;;;;;;;;5031645;28;20018;-53
2021/04/27 08:03:01;;;;;;;4.43;1.45;;;;;;;;;;5032458;28;20025;-56
2021/04/27 08:05:26;;;;;;;3.55;0.95;;;;;;;;;;5029154;28;20073;-54
2021/04/27 08:07:51;;;;;;;6.13;1.23;;;;;;;;;;5029103;28;20026;-54
2021/04/27 08:10:17;;;;;;;3.42;1.00;;;;;;;;;;5029757;28;20029;-57
2021/04/27 08:12:45;;;;;;;3.20;1.65;;;;;;;;;;5032035;28;20421;-57
2021/04/27 08:15:11;;;;;;;2.97;1.60;;;;;;;;;;5041252;28;20029;-54
2021/04/27 08:17:36;;;;;;;2.97;1.00;;;;;;;;;;5039706;28;20025;-54
2021/04/27 08:20:03;;;;;;;3.08;1.30;;;;;;;;;;5030047;28;20431;-55
2021/04/27 08:22:28;;;;;;;3.58;1.20;;;;;;;;;;5033298;28;20112;-57
2021/04/27 08:24:54;;;;;;;4.80;1.13;;;;;;;;;;5033154;28;20041;-57
2021/04/27 08:27:20;;;;;;;3.45;1.45;;;;;;;;;;5034293;28;20212;-56
2021/04/27 08:29:45;;;;;;;2.88;1.73;;;;;;;;;;5041237;28;20387;-55
2021/04/27 08:32:11;;;;;;;3.60;1.20;;;;;;;;;;5037684;28;20249;-55
2021/04/27 08:34:36;;;;;;;4.15;1.42;;;;;;;;;;5032749;28;20045;-55
2021/04/27 08:37:02;;;;;;;3.15;1.63;;;;;;;;;;5031661;28;20456;-55
2021/04/27 08:39:27;;;;;;;3.97;1.27;;;;;;;;;;5029712;28;20104;-56
2021/04/27 08:41:52;;;;;;;3.88;1.30;;;;;;;;;;5033118;28;20033;-55
2021/04/27 08:44:18;;;;;;;4.35;1.92;;;;;;;;;;5033122;28;20029;-54
2021/04/27 08:46:43;;;;;;;4.32;1.40;;;;;;;;;;5032054;28;20079;-55
2021/04/27 08:49:08;;;;;;;5.82;1.90;;;;;;;;;;5029416;28;20103;-55
2021/04/27 08:51:34;;;;;;;2.42;1.00;;;;;;;;;;5032373;28;20043;-54
2021/04/27 08:53:59;;;;;;;2.08;1.20;;;;;;;;;;5032267;28;20108;-56
2021/04/27 08:56:25;;;;;;;2.78;1.25;;;;;;;;;;5039574;28;22557;-55
2021/04/27 08:58:50;;;;;;;3.22;1.48;;;;;;;;;;5031288;28;20243;-55
2021/04/27 09:01:15;;;;;;;5.05;1.50;;;;;;;;;;5032247;28;20096;-59
2021/04/27 09:03:45;;;;;;;4.75;1.60;;;;;;;;;;5047233;28;20021;-57
2021/04/27 09:06:17;;;;;;;2.47;1.77;;;;;;;;;;5032341;28;20053;-56
2021/04/27 09:08:43;;;;;;;7.18;1.70;;;;;;;;;;5033232;28;20105;-56
2021/04/27 09:11:27;;;;;;;2.88;1.38;;;;;;;;;;5033353;28;20116;-57
2021/04/27 09:14:08;;;;;;;1.80;1.00;;;;;;;;;;5043227;28;20472;-57
2021/04/27 09:16:33;;;;;;;5.80;1.48;;;;;;;;;;5033817;28;20370;-56
2021/04/27 09:18:59;;;;;;;3.33;1.50;;;;;;;;;;5032333;28;20055;-53
2021/04/27 09:21:31;;;;;;;2.90;1.40;;;;;;;;;;5032932;28;20451;-56
2021/04/27 09:23:56;;;;;;;1.92;1.27;;;;;;;;;;5032944;28;20075;-57
2021/04/27 09:26:23;;;;;;;4.18;1.20;;;;;;;;;;5032001;28;20025;-57
2021/04/27 09:28:50;;;;;;;3.58;1.17;;;;;;;;;;5024986;28;20447;-55
2021/04/27 09:31:21;;;;;;;3.08;1.10;;;;;;;;;;5031166;28;20025;-57
2021/04/27 09:33:47;;;;;;;4.47;1.33;;;;;;;;;;5035654;28;20095;-56
2021/04/27 09:36:25;;;;;;;4.85;1.55;;;;;;;;;;5032168;28;20460;-56
2021/04/27 09:38:54;;;;;;;3.53;1.40;;;;;;;;;;5009881;28;20029;-56
2021/04/27 09:41:23;;;;;;;6.28;1.73;;;;;;;;;;5027822;28;20029;-56
2021/04/27 09:43:50;;;;;;;4.55;1.48;;;;;;;;;;5031302;28;20025;-56
2021/04/27 09:46:16;;;;;;;4.40;1.40;;;;;;;;;;5031447;28;20025;-53
2021/04/27 09:48:42;;;;;;;5.22;1.80;;;;;;;;;;5030392;28;20025;-55
2021/04/27 09:51:13;;;;;;;4.55;1.75;;;;;;;;;;5038820;28;20090;-56
2021/04/27 09:53:38;;;;;;;6.13;1.75;;;;;;;;;;5051979;28;20031;-53
2021/04/27 09:56:04;;;;;;;9.63;2.10;;;;;;;;;;5041248;28;20033;-55
2021/04/27 09:58:29;;;;;;;4.57;1.48;;;;;;;;;;5030895;28;20353;-54
2021/04/27 10:00:55;;;;;;;5.18;1.70;;;;;;;;;;5028819;28;20020;-55
2021/04/27 10:03:21;;;;;;;6.20;1.65;;;;;;;;;;5031716;28;20028;-54
2021/04/27 10:05:46;;;;;;;7.20;2.92;;;;;;;;;;5050089;28;20037;-58
2021/04/27 10:08:12;;;;;;;9.73;2.30;;;;;;;;;;5027880;28;20032;-55
2021/04/27 10:10:38;;;;;;;5.68;1.55;;;;;;;;;;5031080;28;20025;-54
2021/04/27 10:13:05;;;;;;;3.20;1.95;;;;;;;;;;5044318;28;20580;-55
2021/04/27 10:15:31;;;;;;;3.40;1.98;;;;;;;;;;5030772;28;20029;-55
2021/04/27 10:17:59;;;;;;;6.75;1.95;;;;;;;;;;5031780;28;20017;-55
2021/04/27 10:20:24;;;;;;;8.30;2.47;;;;;;;;;;5028962;28;20076;-54
2021/04/27 10:22:50;;;;;;;3.75;1.77;;;;;;;;;;5040305;28;20017;-54
2021/04/27 10:25:22;;;;;;;5.07;1.75;;;;;;;;;;5011766;28;20503;-55
2021/04/27 10:27:58;;;;;;;3.33;2.00;;;;;;;;;;5023331;28;20380;-53
2021/04/27 10:30:23;;;;;;;5.13;2.20;;;;;;;;;;5035239;28;20115;-52
2021/04/27 10:33:01;;;;;;;4.88;1.95;;;;;;;;;;5044920;28;20177;-54
2021/04/27 10:35:26;;;;;;;3.40;1.58;;;;;;;;;;5031893;28;20017;-55
2021/04/27 10:38:01;;;;;;;5.20;1.98;;;;;;;;;;5031182;28;20428;-56
2021/04/27 10:40:44;;;;;;;2.20;1.30;;;;;;;;;;5028209;28;20079;-56
2021/04/27 10:43:22;;;;;;;2.60;1.45;;;;;;;;;;5026815;28;20063;-55
2021/04/27 10:45:47;;;;;;;4.25;1.65;;;;;;;;;;5011298;28;20029;-54
2021/04/27 10:48:24;;;;;;;4.80;2.05;;;;;;;;;;5022205;28;20029;-54
2021/04/27 10:50:49;;;;;;;2.78;1.80;;;;;;;;;;5026683;28;20049;-54
2021/04/27 10:53:34;;;;;;;3.10;1.63;;;;;;;;;;5030894;28;20095;-53
2021/04/27 10:56:00;;;;;;;3.33;2.17;;;;;;;;;;5030729;28;20045;-53
2021/04/27 10:58:45;;;;;;;2.03;1.70;;;;;;;;;;5030232;28;20316;-53
2021/04/27 11:01:21;;;;;;;3.35;1.90;;;;;;;;;;5033596;28;20018;-55
2021/04/27 11:03:48;;;;;;;2.95;1.90;;;;;;;;;;5030167;28;20024;-57
2021/04/27 11:06:14;;;;;;;4.55;1.85;;;;;;;;;;5030305;28;20045;-55
2021/04/27 11:08:52;;;;;;;3.72;1.95;;;;;;;;;;5014585;28;20032;-54
2021/04/27 11:11:17;;;;;;;3.47;1.67;;;;;;;;;;5027668;28;20371;-56
2021/04/27 11:13:43;;;;;;;5.95;1.67;;;;;;;;;;5030573;28;20029;-53
2021/04/27 11:16:27;;;;;;;3.08;1.67;;;;;;;;;;5030684;28;20128;-56
2021/04/27 11:19:09;;;;;;;5.07;1.73;;;;;;;;;;5027916;28;20221;-54
2021/04/27 11:21:34;;;;;;;3.17;1.48;;;;;;;;;;5029999;28;20025;-53
2021/04/27 11:24:02;;;;;;;7.13;1.85;;;;;;;;;;5030502;28;20014;-55
2021/04/27 11:26:33;;;;;;;3.17;1.67;;;;;;;;;;5029788;28;20026;-57
2021/04/27 11:29:18;;;;;;;3.08;1.80;;;;;;;;;;5027306;28;20369;-55
2021/04/27 11:31:59;;;;;;;3.92;1.73;;;;;;;;;;5021789;28;20033;-54
2021/04/27 11:34:25;;;;;;;3.00;1.70;;;;;;;;;;5029725;28;20064;-55
2021/04/27 11:36:51;;;;;;;3.20;2.00;;;;;;;;;;5030214;28;20025;-56
2021/04/27 11:39:18;;;;;;;2.58;1.52;;;;;;;;;;5030337;28;20441;-54
2021/04/27 11:41:51;;;;;;;2.30;1.70;;;;;;;;;;5030053;28;20028;-57
2021/04/27 11:44:18;;;;;;;4.18;1.67;;;;;;;;;;5025782;28;20026;-56
2021/04/27 11:46:53;;;;;;;24.00;3.95;;;;;;;;;;5034102;28;20020;-56
2021/04/27 11:49:19;;;;;;;24.42;4.00;;;;;;;;;;5030659;28;20479;-55
2021/04/27 11:51:44;;;;;;;4.72;1.80;;;;;;;;;;5033607;28;20089;-55
2021/04/27 11:54:10;;;;;;;4.20;1.70;;;;;;;;;;5034079;28;20120;-54
2021/04/27 11:56:45;;;;;;;2.08;1.67;;;;;;;;;;5043296;28;20017;-57
2021/04/27 11:59:10;;;;;;;3.42;1.90;;;;;;;;;;5031689;28;20021;-56
2021/04/27 12:01:36;;;;;;;2.80;1.50;;;;;;;;;;5032002;28;20021;-56
2021/04/27 12:04:01;;;;;;;5.40;2.22;;;;;;;;;;5033550;28;20014;-57
2021/04/27 12:06:30;;;;;;;3.80;1.83;;;;;;;;;;5033093;28;20092;-55
2021/04/27 12:08:55;;;;;;;2.80;1.80;;;;;;;;;;5030994;28;20053;-53
2021/04/27 12:11:25;;;;;;;3.67;2.30;;;;;;;;;;5032680;28;20522;-56
2021/04/27 12:13:52;;;;;;;3.95;1.95;;;;;;;;;;5033186;28;20032;-55
2021/04/27 12:16:21;;;;;;;4.38;1.75;;;;;;;;;;5032851;28;20388;-55
2021/04/27 12:18:52;;;;;;;2.95;1.58;;;;;;;;;;5030917;28;20071;-53
2021/04/27 12:21:39;;;;;;;3.17;1.80;;;;;;;;;;5032657;28;20049;-54
2021/04/27 12:24:09;;;;;;;3.55;1.85;;;;;;;;;;5033547;28;20025;-53
2021/04/27 12:26:35;;;;;;;3.30;1.80;;;;;;;;;;5031858;28;20032;-55
2021/04/27 12:29:01;;;;;;;3.92;1.50;;;;;;;;;;5029136;28;20147;-55
2021/04/27 12:31:26;;;;;;;2.28;1.90;;;;;;;;;;5032285;28;20018;-56
2021/04/27 12:33:56;;;;;;;2.22;2.00;;;;;;;;;;5032018;28;20037;-54
2021/04/27 12:36:31;;;;;;;2.83;2.00;;;;;;;;;;5031921;28;20026;-54
2021/04/27 12:38:56;;;;;;;2.50;1.30;;;;;;;;;;5029998;28;20306;-57
2021/04/27 12:41:33;;;;;;;3.90;1.73;;;;;;;;;;5032628;28;20067;-54
2021/04/27 12:43:58;;;;;;;2.72;1.73;;;;;;;;;;5020514;28;20014;-55
2021/04/27 12:46:23;;;;;;;3.63;1.65;;;;;;;;;;5032950;28;20079;-54
2021/04/27 12:48:50;;;;;;;3.50;2.05;;;;;;;;;;5029672;28;20093;-53
2021/04/27 12:51:15;;;;;;;5.15;2.05;;;;;;;;;;5030960;28;20013;-55
2021/04/27 12:53:42;;;;;;;4.65;1.75;;;;;;;;;;5032393;28;20392;-56
2021/04/27 12:56:09;;;;;;;3.50;1.77;;;;;;;;;;5019360;28;20034;-56
2021/04/27 12:58:34;;;;;;;3.40;1.90;;;;;;;;;;5031850;28;20017;-53
2021/04/27 13:01:02;;;;;;;3.33;1.63;;;;;;;;;;5030754;28;20354;-57
2021/04/27 13:03:31;;;;;;;3.17;2.08;;;;;;;;;;5027861;28;20366;-56
2021/04/27 13:05:56;;;;;;;3.60;1.80;;;;;;;;;;5033443;28;20041;-55
2021/04/27 13:08:22;;;;;;;3.08;2.00;;;;;;;;;;5025112;28;20029;-55
2021/04/27 13:10:47;;;;;;;2.40;1.35;;;;;;;;;;5009582;28;20028;-54
2021/04/27 13:13:14;;;;;;;4.18;1.90;;;;;;;;;;5016679;28;20343;-56
2021/04/27 13:15:41;;;;;;;2.40;1.90;;;;;;;;;;5032536;28;20362;-55
2021/04/27 13:18:06;;;;;;;3.90;1.70;;;;;;;;;;5036516;28;20315;-58
2021/04/27 13:20:36;;;;;;;3.53;1.58;;;;;;;;;;5038372;28;20025;-56
2021/04/27 13:23:03;;;;;;;2.83;1.85;;;;;;;;;;5045974;28;20021;-57
2021/04/27 13:25:47;;;;;;;2.70;1.60;;;;;;;;;;5034424;28;20535;-57
2021/04/27 13:28:17;;;;;;;3.15;1.73;;;;;;;;;;5035542;28;20088;-56
2021/04/27 13:30:46;;;;;;;3.75;1.85;;;;;;;;;;5029316;28;20022;-57
2021/04/27 13:33:13;;;;;;;3.35;2.33;;;;;;;;;;5031534;28;20044;-58
2021/04/27 13:35:47;;;;;;;5.25;2.38;;;;;;;;;;5032503;28;20033;-59
2021/04/27 13:38:13;;;;;;;3.67;1.63;;;;;;;;;;5032389;28;20014;-56
2021/04/27 13:40:39;;;;;;;3.00;1.88;;;;;;;;;;5028439;28;20120;-55
2021/04/27 13:43:08;;;;;;;2.22;1.80;;;;;;;;;;5040989;28;20021;-55
2021/04/27 13:45:33;;;;;;;2.53;1.58;;;;;;;;;;5032454;28;20075;-55
2021/04/27 13:48:00;;;;;;;5.10;2.20;;;;;;;;;;5032361;28;20126;-56
2021/04/27 13:50:26;;;;;;;5.18;2.38;;;;;;;;;;5028634;28;20100;-56
2021/04/27 13:52:51;;;;;;;5.53;1.95;;;;;;;;;;5034009;28;20105;-57
2021/04/27 13:55:17;;;;;;;3.45;1.75;;;;;;;;;;5026982;28;20018;-58
2021/04/27 13:57:42;;;;;;;2.72;1.58;;;;;;;;;;5028460;28;20053;-56
2021/04/27 14:00:08;;;;;;;2.60;1.40;;;;;;;;;;5027704;28;20017;-57
2021/04/27 14:02:34;;;;;;;2.85;1.55;;;;;;;;;;5028673;28;20048;-56
2021/04/27 14:04:59;;;;;;;4.68;1.80;;;;;;;;;;5032016;28;20025;-56
2021/04/27 14:07:25;;;;;;;3.72;1.67;;;;;;;;;;5025434;28;20049;-53
2021/04/27 14:09:50;;;;;;;2.40;1.40;;;;;;;;;;5012874;28;20026;-57
2021/04/27 14:12:15;;;;;;;2.93;1.60;;;;;;;;;;5025163;28;20092;-57
2021/04/27 14:14:41;;;;;;;3.80;1.52;;;;;;;;;;5030045;28;20312;-54
2021/04/27 14:17:06;;;;;;;4.20;1.67;;;;;;;;;;5026122;28;20030;-54
2021/04/27 14:19:31;;;;;;;3.58;1.55;;;;;;;;;;5027690;28;20480;-54
2021/04/27 14:21:56;;;;;;;2.80;1.87;;;;;;;;;;5031437;28;20108;-56
2021/04/27 14:24:22;;;;;;;2.08;1.40;;;;;;;;;;5034297;28;20619;-56
2021/04/27 14:26:47;;;;;;;3.10;1.90;;;;;;;;;;5029756;28;20021;-54
2021/04/27 14:29:12;;;;;;;3.13;1.60;;;;;;;;;;5026724;28;20516;-57
2021/04/27 14:31:37;;;;;;;2.47;1.67;;;;;;;;;;5030799;28;20575;-56
2021/04/27 14:34:02;;;;;;;2.10;1.30;;;;;;;;;;5028631;28;20297;-52
2021/04/27 14:36:28;;;;;;;4.40;1.50;;;;;;;;;;5014178;28;20108;-54
2021/04/27 14:38:53;;;;;;;2.42;1.80;;;;;;;;;;5026861;28;20596;-55
2021/04/27 14:41:18;;;;;;;3.50;1.40;;;;;;;;;;5030000;28;20017;-56